Darstellungsparameter: Aktuell verwendete Einstellungen:
Skalierung der Graphiken ... ?
xyx+y,   Skalierungsfaktor:      Skalierung: Modus: x, Faktor: 1
Darstellungszeitraum ... ?
Vom - - bis: - -   Zeitraum: 06.04.2021 - 06.04.2021
Min/Max/Avg-Anzeige ... ?
Zeige MMA aktuell
Zeige MMA Monat
Zeige MMA alles
Zeige --A aktuell
Zeige --A Monat
Zeige --A alles
Keine MMA-Anzeige
MMA:
Average (ber die Originaldaten)
MMA-Basis: 06.04.2021 - 06.04.2021
Quicknavigation für Darstellung... ?
Tage:      1T, 2T, 3T, 5T -1T -2T -3T -5T +1T +2T +3T +5T
Wochen: 1W, 2W, 3W -1W -2W -3W +1W +2W +3W
Monate: 1M, 3M, 6M -1M -3M -6M +1M +3M +6M
Jahre:    1J, 3J, 5J, 10J -1J -3J -5J -10J +1J +3J +5J +10J
Nutze für die Darstellung ... ?
Originaldaten oder Mittelwerte auf ...
Stundenbasis Tagesbasis Wochenbasis
Monatsbasis Jahresbasis      Datenbasis: Original-Daten
Darstellen als:
Statistik (Auto) Statistik J:M      Darstellung:
Zur Graphik,    zurück zur Übersicht aller Sensoren.
 
Tabellarische Datenbersicht: ?
 
Sensor: Nr:Datum:Temp:Abs-Feuchte:Windchill:Wind:
Aussen-T/F 1 06-04-2021 00:00:00 1.2 C 4.05 g/m*3 -1.36 C 8.1 km/h
2 06-04-2021 00:05:00 1.1 C 4.02 g/m*3 -0.91 C 6.4 km/h
3 06-04-2021 00:10:00 1 C 4 g/m*3 -2.43 C 11.3 km/h
4 06-04-2021 00:15:00 1 C 4 g/m*3 -2.43 C 11.3 km/h
5 06-04-2021 00:20:00 1 C 4.05 g/m*3 -3.09 C 14.5 km/h
6 06-04-2021 00:25:00 1 C 4.05 g/m*3 -3.09 C 14.5 km/h
7 06-04-2021 00:30:00 1.1 C 4.08 g/m*3 -2.31 C 11.3 km/h
8 06-04-2021 00:35:00 1.1 C 4.08 g/m*3 -3.25 C 16.1 km/h
9 06-04-2021 00:40:00 1.2 C 4.05 g/m*3 -1.8 C 9.7 km/h
10 06-04-2021 00:45:00 1.1 C 4.02 g/m*3 -2.97 C 14.5 km/h
11 06-04-2021 00:50:00 1.1 C 4.08 g/m*3 -2.31 C 11.3 km/h
12 06-04-2021 00:55:00 1.1 C 4.02 g/m*3 -1.92 C 9.7 km/h
13 06-04-2021 01:00:00 1.1 C 4.02 g/m*3 -2.97 C 14.5 km/h
14 06-04-2021 01:05:00 1 C 4 g/m*3 -2.78 C 12.9 km/h
15 06-04-2021 01:10:00 0.9 C 4.02 g/m*3 -2.16 C 9.7 km/h
16 06-04-2021 01:15:00 0.8 C 3.94 g/m*3 -3.34 C 14.5 km/h
17 06-04-2021 01:20:00 0.8 C 3.99 g/m*3 -3.89 C 17.7 km/h
18 06-04-2021 01:25:00 0.8 C 3.99 g/m*3 -3.62 C 16.1 km/h
19 06-04-2021 01:30:00 0.8 C 3.99 g/m*3 -3.02 C 12.9 km/h
20 06-04-2021 01:35:00 0.8 C 3.99 g/m*3 -3.62 C 16.1 km/h
21 06-04-2021 01:40:00 0.9 C 4.02 g/m*3 -2.9 C 12.9 km/h
22 06-04-2021 01:45:00 1 C 4 g/m*3 -3.09 C 14.5 km/h
23 06-04-2021 01:50:00 1.1 C 4.08 g/m*3 -2.97 C 14.5 km/h
24 06-04-2021 01:55:00 1.2 C 4.16 g/m*3 -3.39 C 17.7 km/h
25 06-04-2021 02:00:00 1.2 C 4.21 g/m*3 -2.85 C 14.5 km/h
Sensor: Nr:Datum:Temp:Abs-Feuchte:Windchill:Wind:
Aussen-T/F 26 06-04-2021 02:05:00 1.2 C 4.26 g/m*3 -2.54 C 12.9 km/h
27 06-04-2021 02:10:00 1.2 C 4.26 g/m*3 -2.85 C 14.5 km/h
28 06-04-2021 02:15:00 1.2 C 4.31 g/m*3 -3.13 C 16.1 km/h
29 06-04-2021 02:20:00 1.2 C 4.26 g/m*3 -3.13 C 16.1 km/h
30 06-04-2021 02:25:00 1.2 C 4.26 g/m*3 -2.85 C 14.5 km/h
31 06-04-2021 02:30:00 1.2 C 4.26 g/m*3 -2.85 C 14.5 km/h
32 06-04-2021 02:35:00 1.3 C 4.29 g/m*3 -2.41 C 12.9 km/h
33 06-04-2021 02:40:00 1.4 C 4.32 g/m*3 -2.29 C 12.9 km/h
34 06-04-2021 02:45:00 1.4 C 4.32 g/m*3 -3.38 C 19.3 km/h
35 06-04-2021 02:50:00 1.5 C 4.4 g/m*3 -3.25 C 19.3 km/h
36 06-04-2021 02:55:00 1.4 C 4.43 g/m*3 -3.14 C 17.7 km/h
37 06-04-2021 03:00:00 1.4 C 4.43 g/m*3 -2.6 C 14.5 km/h
38 06-04-2021 03:05:00 1.3 C 4.45 g/m*3 -3 C 16.1 km/h
39 06-04-2021 03:10:00 1.3 C 4.5 g/m*3 -2.72 C 14.5 km/h
40 06-04-2021 03:15:00 1.3 C 4.45 g/m*3 -2.72 C 14.5 km/h
41 06-04-2021 03:20:00 1.3 C 4.45 g/m*3 -3 C 16.1 km/h
42 06-04-2021 03:25:00 1.3 C 4.45 g/m*3 -2.72 C 14.5 km/h
43 06-04-2021 03:30:00 1.4 C 4.48 g/m*3 -1.57 C 9.7 km/h
44 06-04-2021 03:35:00 1.4 C 4.43 g/m*3 -1.95 C 11.3 km/h
45 06-04-2021 03:40:00 1.4 C 4.43 g/m*3 -2.6 C 14.5 km/h
46 06-04-2021 03:45:00 1.5 C 4.46 g/m*3 -2.48 C 14.5 km/h
47 06-04-2021 03:50:00 1.6 C 4.49 g/m*3 -2.63 C 16.1 km/h
48 06-04-2021 03:55:00 1.6 C 4.49 g/m*3 -1.71 C 11.3 km/h
49 06-04-2021 04:00:00 1.7 C 4.46 g/m*3 -1.93 C 12.9 km/h
50 06-04-2021 04:05:00 1.8 C 4.49 g/m*3 -2.11 C 14.5 km/h
Sensor: Nr:Datum:Temp:Abs-Feuchte:Windchill:Wind:
Aussen-T/F 51 06-04-2021 04:10:00 1.8 C 4.49 g/m*3 -2.38 C 16.1 km/h
52 06-04-2021 04:15:00 1.8 C 4.49 g/m*3 -1.47 C 11.3 km/h
53 06-04-2021 04:20:00 1.9 C 4.53 g/m*3 -1.35 C 11.3 km/h
54 06-04-2021 04:25:00 2 C 4.56 g/m*3 -1.86 C 14.5 km/h
55 06-04-2021 04:30:00 2.1 C 4.53 g/m*3 -1.74 C 14.5 km/h
56 06-04-2021 04:35:00 2.2 C 4.56 g/m*3 -0.99 C 11.3 km/h
57 06-04-2021 04:40:00 2.3 C 4.54 g/m*3 -1.2 C 12.9 km/h
58 06-04-2021 04:45:00 2.4 C 4.57 g/m*3 -1.37 C 14.5 km/h
59 06-04-2021 04:50:00 2.4 C 4.57 g/m*3 0.59 C 6.4 km/h
60 06-04-2021 04:55:00 2.4 C 4.57 g/m*3 -1.07 C 12.9 km/h
61 06-04-2021 05:00:00 2.4 C 4.51 g/m*3 -0.37 C 9.7 km/h
62 06-04-2021 05:05:00 2.5 C 4.54 g/m*3 0.17 C 8.1 km/h
63 06-04-2021 05:10:00 2.5 C 4.54 g/m*3 -0.62 C 11.3 km/h
64 06-04-2021 05:15:00 2.6 C 4.57 g/m*3 -1.12 C 14.5 km/h
65 06-04-2021 05:20:00 2.7 C 4.54 g/m*3 -1 C 14.5 km/h
66 06-04-2021 05:25:00 2.8 C 4.58 g/m*3 -0.59 C 12.9 km/h
67 06-04-2021 05:30:00 2.8 C 4.58 g/m*3 -0.88 C 14.5 km/h
68 06-04-2021 05:35:00 2.8 C 4.58 g/m*3 0.1 C 9.7 km/h
69 06-04-2021 05:40:00 2.8 C 4.58 g/m*3 0.52 C 8.1 km/h
70 06-04-2021 05:45:00 2.8 C 4.58 g/m*3 -0.59 C 12.9 km/h
71 06-04-2021 05:50:00 2.8 C 4.63 g/m*3 -0.88 C 14.5 km/h
72 06-04-2021 05:55:00 2.8 C 4.63 g/m*3 -0.88 C 14.5 km/h
73 06-04-2021 06:00:00 2.8 C 4.63 g/m*3 0.1 C 9.7 km/h
74 06-04-2021 06:05:00 2.8 C 4.63 g/m*3 -0.26 C 11.3 km/h
75 06-04-2021 06:10:00 2.7 C 4.72 g/m*3 -1.95 C 20.9 km/h
Sensor: Nr:Datum:Temp:Abs-Feuchte:Windchill:Wind:
Aussen-T/F 76 06-04-2021 06:15:00 2.6 C 4.8 g/m*3 -2.08 C 20.9 km/h
77 06-04-2021 06:20:00 2.3 C 4.76 g/m*3 0.47 C 6.4 km/h
78 06-04-2021 06:25:00 2.2 C 4.79 g/m*3 0.36 C 6.4 km/h
79 06-04-2021 06:30:00 2 C 4.78 g/m*3 2 C 4.8 km/h
80 06-04-2021 06:35:00 1.9 C 4.75 g/m*3 -0.54 C 8.1 km/h
81 06-04-2021 06:40:00 1.9 C 4.75 g/m*3 1.9 C 4.8 km/h
82 06-04-2021 06:45:00 1.8 C 4.71 g/m*3 -0.1 C 6.4 km/h
83 06-04-2021 06:50:00 1.8 C 4.77 g/m*3 -0.1 C 6.4 km/h
84 06-04-2021 06:55:00 1.8 C 4.71 g/m*3 -0.1 C 6.4 km/h
85 06-04-2021 07:00:00 1.8 C 4.71 g/m*3 -0.1 C 6.4 km/h
86 06-04-2021 07:05:00 1.9 C 4.75 g/m*3 0.01 C 6.4 km/h
87 06-04-2021 07:10:00 1.9 C 4.8 g/m*3 -0.97 C 9.7 km/h
88 06-04-2021 07:15:00 1.8 C 4.77 g/m*3 1.8 C 4.8 km/h
89 06-04-2021 07:20:00 1.8 C 4.82 g/m*3 1.8 C 4.8 km/h
90 06-04-2021 07:25:00 1.7 C 4.79 g/m*3 -1.21 C 9.7 km/h
91 06-04-2021 07:30:00 1.7 C 4.79 g/m*3 -1.21 C 9.7 km/h
92 06-04-2021 07:35:00 1.7 C 4.79 g/m*3 -0.22 C 6.4 km/h
93 06-04-2021 07:40:00 1.7 C 4.85 g/m*3 1.7 C 4.8 km/h
94 06-04-2021 07:45:00 1.7 C 4.85 g/m*3 -0.77 C 8.1 km/h
95 06-04-2021 07:50:00 1.7 C 4.85 g/m*3 1.7 C 3.2 km/h
96 06-04-2021 07:55:00 1.8 C 4.88 g/m*3 1.8 C 3.2 km/h
97 06-04-2021 08:00:00 1.8 C 4.82 g/m*3 -0.1 C 6.4 km/h
98 06-04-2021 08:05:00 1.8 C 4.82 g/m*3 -0.65 C 8.1 km/h
99 06-04-2021 08:10:00 1.8 C 4.82 g/m*3 1.8 C 3.2 km/h
100 06-04-2021 08:15:00 1.8 C 4.77 g/m*3 -0.1 C 6.4 km/h
Sensor: Nr:Datum:Temp:Abs-Feuchte:Windchill:Wind:
Aussen-T/F 101 06-04-2021 08:20:00 1.9 C 4.8 g/m*3 -0.54 C 8.1 km/h
102 06-04-2021 08:25:00 2.1 C 4.81 g/m*3 2.1 C 3.2 km/h
103 06-04-2021 08:30:00 2.2 C 4.84 g/m*3 0.36 C 6.4 km/h
104 06-04-2021 08:35:00 2.3 C 4.82 g/m*3 0.47 C 6.4 km/h
105 06-04-2021 08:40:00 2.4 C 4.8 g/m*3 0.59 C 6.4 km/h
106 06-04-2021 08:45:00 2.6 C 4.8 g/m*3 -0.83 C 12.9 km/h
107 06-04-2021 08:50:00 2.8 C 4.81 g/m*3 -0.59 C 12.9 km/h
108 06-04-2021 08:55:00 2.9 C 4.72 g/m*3 -0.14 C 11.3 km/h
109 06-04-2021 09:00:00 3 C 4.64 g/m*3 -0.9 C 16.1 km/h
110 06-04-2021 09:05:00 3.1 C 4.61 g/m*3 -0.22 C 12.9 km/h
111 06-04-2021 09:10:00 3.2 C 4.7 g/m*3 -0.65 C 16.1 km/h
112 06-04-2021 09:15:00 3.1 C 4.55 g/m*3 -0.51 C 14.5 km/h
113 06-04-2021 09:20:00 3.1 C 4.61 g/m*3 -1.64 C 22.5 km/h
114 06-04-2021 09:25:00 3.2 C 4.7 g/m*3 -1.51 C 22.5 km/h
115 06-04-2021 09:30:00 3.2 C 4.64 g/m*3 -0.39 C 14.5 km/h
116 06-04-2021 09:35:00 3.2 C 4.64 g/m*3 -0.39 C 14.5 km/h
117 06-04-2021 09:40:00 3.3 C 4.73 g/m*3 -0.26 C 14.5 km/h
118 06-04-2021 09:45:00 3.3 C 4.67 g/m*3 -0.99 C 19.3 km/h
119 06-04-2021 09:50:00 3.3 C 4.61 g/m*3 -0.26 C 14.5 km/h
120 06-04-2021 09:55:00 3.3 C 4.61 g/m*3 0.34 C 11.3 km/h
121 06-04-2021 10:00:00 3.4 C 4.58 g/m*3 0.14 C 12.9 km/h
122 06-04-2021 10:05:00 3.5 C 4.67 g/m*3 0.58 C 11.3 km/h
123 06-04-2021 10:10:00 3.6 C 4.64 g/m*3 0.39 C 12.9 km/h
124 06-04-2021 10:15:00 3.7 C 4.55 g/m*3 0.82 C 11.3 km/h
125 06-04-2021 10:20:00 3.8 C 4.58 g/m*3 0.35 C 14.5 km/h
Sensor: Nr:Datum:Temp:Abs-Feuchte:Windchill:Wind:
Aussen-T/F 126 06-04-2021 10:25:00 3.8 C 4.58 g/m*3 0.63 C 12.9 km/h
127 06-04-2021 10:30:00 3.8 C 4.58 g/m*3 0.94 C 11.3 km/h
128 06-04-2021 10:35:00 4 C 4.7 g/m*3 0.6 C 14.5 km/h
129 06-04-2021 10:40:00 4 C 4.51 g/m*3 0.88 C 12.9 km/h
130 06-04-2021 10:45:00 3.9 C 4.55 g/m*3 1.41 C 9.7 km/h
131 06-04-2021 10:50:00 3.9 C 4.48 g/m*3 0.75 C 12.9 km/h
132 06-04-2021 10:55:00 3.9 C 4.48 g/m*3 -0.01 C 17.7 km/h
133 06-04-2021 11:00:00 4.1 C 4.54 g/m*3 0.72 C 14.5 km/h
134 06-04-2021 11:05:00 4.2 C 4.45 g/m*3 1.77 C 9.7 km/h
135 06-04-2021 11:10:00 4.4 C 4.57 g/m*3 0.61 C 17.7 km/h
136 06-04-2021 11:15:00 4.4 C 4.31 g/m*3 0.2 C 20.9 km/h
137 06-04-2021 11:20:00 4.5 C 4.34 g/m*3 0.96 C 16.1 km/h
138 06-04-2021 11:25:00 4.5 C 4.4 g/m*3 -0.2 C 25.7 km/h
139 06-04-2021 11:30:00 4.5 C 4.4 g/m*3 2.13 C 9.7 km/h
140 06-04-2021 11:35:00 4.5 C 4.47 g/m*3 1.48 C 12.9 km/h
141 06-04-2021 11:40:00 4.4 C 4.51 g/m*3 0.4 C 19.3 km/h
142 06-04-2021 11:45:00 4.4 C 4.57 g/m*3 2.01 C 9.7 km/h
143 06-04-2021 11:50:00 4.7 C 4.6 g/m*3 1.46 C 14.5 km/h
144 06-04-2021 11:55:00 4.8 C 4.49 g/m*3 1.85 C 12.9 km/h
145 06-04-2021 12:00:00 4.8 C 4.49 g/m*3 0.71 C 20.9 km/h
146 06-04-2021 12:05:00 4.3 C 4.74 g/m*3 -0.11 C 22.5 km/h
147 06-04-2021 12:10:00 3.8 C 4.83 g/m*3 0.35 C 14.5 km/h
148 06-04-2021 12:15:00 3.4 C 4.89 g/m*3 1.23 C 8.1 km/h
149 06-04-2021 12:20:00 3.3 C 4.85 g/m*3 -0.99 C 19.3 km/h
150 06-04-2021 12:25:00 3.1 C 4.85 g/m*3 -1.24 C 19.3 km/h
Sensor: Nr:Datum:Temp:Abs-Feuchte:Windchill:Wind:
Aussen-T/F 151 06-04-2021 12:30:00 2.8 C 4.87 g/m*3 1.05 C 6.4 km/h
152 06-04-2021 12:35:00 2.7 C 4.89 g/m*3 0.4 C 8.1 km/h
153 06-04-2021 12:40:00 2.7 C 4.84 g/m*3 2.7 C 4.8 km/h
154 06-04-2021 12:45:00 2.8 C 4.93 g/m*3 0.52 C 8.1 km/h
155 06-04-2021 12:50:00 3.2 C 4.94 g/m*3 0.99 C 8.1 km/h
156 06-04-2021 12:55:00 3.7 C 4.99 g/m*3 -0.26 C 17.7 km/h
157 06-04-2021 13:00:00 4.1 C 4.93 g/m*3 0.47 C 16.1 km/h
158 06-04-2021 13:05:00 4.3 C 4.99 g/m*3 0.27 C 19.3 km/h
159 06-04-2021 13:10:00 4.6 C 4.76 g/m*3 1.09 C 16.1 km/h
160 06-04-2021 13:15:00 5 C 4.55 g/m*3 1.83 C 14.5 km/h
161 06-04-2021 13:20:00 5.3 C 4.44 g/m*3 2.46 C 12.9 km/h
162 06-04-2021 13:25:00 5.6 C 4.52 g/m*3 2.83 C 12.9 km/h
163 06-04-2021 13:30:00 6.1 C 4.68 g/m*3 3.18 C 14.5 km/h
164 06-04-2021 13:35:00 6.5 C 4.5 g/m*3 3.04 C 19.3 km/h
165 06-04-2021 13:40:00 6.7 C 4.33 g/m*3 3.11 C 20.9 km/h
166 06-04-2021 13:45:00 6.8 C 4.44 g/m*3 3.07 C 22.5 km/h
167 06-04-2021 13:50:00 6.8 C 4.44 g/m*3 3.61 C 17.7 km/h
168 06-04-2021 13:55:00 6.7 C 4.48 g/m*3 3.11 C 20.9 km/h
169 06-04-2021 14:00:00 6.5 C 4.35 g/m*3 3.04 C 19.3 km/h
170 06-04-2021 14:05:00 6.4 C 4.17 g/m*3 3.11 C 17.7 km/h
171 06-04-2021 14:10:00 6.4 C 4.1 g/m*3 2.91 C 19.3 km/h
172 06-04-2021 14:15:00 6.4 C 4.02 g/m*3 3.32 C 16.1 km/h
173 06-04-2021 14:20:00 6 C 3.99 g/m*3 2.61 C 17.7 km/h
174 06-04-2021 14:25:00 5.8 C 4.01 g/m*3 2.36 C 17.7 km/h
175 06-04-2021 14:30:00 5.8 C 4.01 g/m*3 2.16 C 19.3 km/h
Sensor: Nr:Datum:Temp:Abs-Feuchte:Windchill:Wind:
Aussen-T/F 176 06-04-2021 14:35:00 6 C 4.06 g/m*3 2.82 C 16.1 km/h
177 06-04-2021 14:40:00 6.6 C 4.08 g/m*3 3.17 C 19.3 km/h
178 06-04-2021 14:45:00 7 C 4.26 g/m*3 4.06 C 16.1 km/h
179 06-04-2021 14:50:00 7.2 C 3.92 g/m*3 3.28 C 25.7 km/h
180 06-04-2021 14:55:00 7.2 C 4.08 g/m*3 4.31 C 16.1 km/h
181 06-04-2021 15:00:00 7.4 C 3.98 g/m*3 4.56 C 16.1 km/h
182 06-04-2021 15:05:00 7.5 C 3.92 g/m*3 4.3 C 19.3 km/h
183 06-04-2021 15:10:00 7.3 C 3.79 g/m*3 3.55 C 24.1 km/h
184 06-04-2021 15:15:00 6.8 C 3.67 g/m*3 3.42 C 19.3 km/h
185 06-04-2021 15:20:00 6.6 C 3.85 g/m*3 3.79 C 14.5 km/h
186 06-04-2021 15:25:00 6.6 C 3.93 g/m*3 4.32 C 11.3 km/h
187 06-04-2021 15:30:00 6.7 C 3.8 g/m*3 3.69 C 16.1 km/h
188 06-04-2021 15:35:00 6.7 C 3.88 g/m*3 3.48 C 17.7 km/h
189 06-04-2021 15:40:00 6.2 C 4.41 g/m*3 2.66 C 19.3 km/h
190 06-04-2021 15:45:00 5.7 C 4.48 g/m*3 2.69 C 14.5 km/h
191 06-04-2021 15:50:00 5.4 C 4.6 g/m*3 3.2 C 9.7 km/h
192 06-04-2021 15:55:00 5.3 C 4.64 g/m*3 3.46 C 8.1 km/h
193 06-04-2021 16:00:00 5.5 C 4.78 g/m*3 2.99 C 11.3 km/h
194 06-04-2021 16:05:00 5.8 C 4.3 g/m*3 2.58 C 16.1 km/h
195 06-04-2021 16:10:00 6 C 4.28 g/m*3 1.89 C 24.1 km/h
196 06-04-2021 16:15:00 5.9 C 4.47 g/m*3 3.19 C 12.9 km/h
197 06-04-2021 16:20:00 6 C 4.06 g/m*3 2.41 C 19.3 km/h
198 06-04-2021 16:25:00 6.1 C 4.02 g/m*3 2.18 C 22.5 km/h
199 06-04-2021 16:30:00 6.2 C 3.97 g/m*3 2.66 C 19.3 km/h
200 06-04-2021 16:35:00 6.2 C 4.04 g/m*3 2.48 C 20.9 km/h
Sensor: Nr:Datum:Temp:Abs-Feuchte:Windchill:Wind:
Aussen-T/F 201 06-04-2021 16:40:00 6.1 C 4.68 g/m*3 1.71 C 27.4 km/h
202 06-04-2021 16:45:00 6 C 4.79 g/m*3 3.06 C 14.5 km/h
203 06-04-2021 16:50:00 6.2 C 4.85 g/m*3 4.15 C 9.7 km/h
204 06-04-2021 16:55:00 6.6 C 4.91 g/m*3 4.04 C 12.9 km/h
205 06-04-2021 17:00:00 6.7 C 4.64 g/m*3 3.92 C 14.5 km/h
206 06-04-2021 17:05:00 6.3 C 4.66 g/m*3 3.43 C 14.5 km/h
207 06-04-2021 17:10:00 5.7 C 4.63 g/m*3 2.24 C 17.7 km/h
208 06-04-2021 17:15:00 5.4 C 4.74 g/m*3 2.87 C 11.3 km/h
209 06-04-2021 17:20:00 5.5 C 4.78 g/m*3 2.7 C 12.9 km/h
210 06-04-2021 17:25:00 5.6 C 4.31 g/m*3 2.11 C 17.7 km/h
211 06-04-2021 17:30:00 5.7 C 4.34 g/m*3 2.24 C 17.7 km/h
212 06-04-2021 17:35:00 5.7 C 4.34 g/m*3 1.35 C 25.7 km/h
213 06-04-2021 17:40:00 6.1 C 4.31 g/m*3 2.73 C 17.7 km/h
214 06-04-2021 17:45:00 6.6 C 4.38 g/m*3 3.57 C 16.1 km/h
215 06-04-2021 17:50:00 6.7 C 4.26 g/m*3 3.92 C 14.5 km/h
216 06-04-2021 17:55:00 6.3 C 4.15 g/m*3 2.98 C 17.7 km/h
217 06-04-2021 18:00:00 5.8 C 4.08 g/m*3 2.81 C 14.5 km/h
218 06-04-2021 18:05:00 5.4 C 4.12 g/m*3 1.66 C 19.3 km/h
219 06-04-2021 18:10:00 5.3 C 4.16 g/m*3 1.16 C 22.5 km/h
220 06-04-2021 18:15:00 5.2 C 4.13 g/m*3 2.63 C 11.3 km/h
221 06-04-2021 18:20:00 5.2 C 4.13 g/m*3 1.61 C 17.7 km/h
222 06-04-2021 18:25:00 5.2 C 4.13 g/m*3 1.4 C 19.3 km/h
223 06-04-2021 18:30:00 5.2 C 4.2 g/m*3 2.63 C 11.3 km/h
224 06-04-2021 18:35:00 5.1 C 4.04 g/m*3 1.28 C 19.3 km/h
225 06-04-2021 18:40:00 4.9 C 4.19 g/m*3 1.24 C 17.7 km/h
Sensor: Nr:Datum:Temp:Abs-Feuchte:Windchill:Wind:
Aussen-T/F 226 06-04-2021 18:45:00 4.6 C 4.5 g/m*3 0.27 C 22.5 km/h
227 06-04-2021 18:50:00 4.3 C 4.61 g/m*3 0.97 C 14.5 km/h
228 06-04-2021 18:55:00 3.9 C 4.61 g/m*3 -0.8 C 24.1 km/h
229 06-04-2021 19:00:00 3.6 C 4.77 g/m*3 -0.15 C 16.1 km/h
230 06-04-2021 19:05:00 3 C 4.82 g/m*3 -0.02 C 11.3 km/h
231 06-04-2021 19:10:00 2.5 C 4.83 g/m*3 -0.95 C 12.9 km/h
232 06-04-2021 19:15:00 2.1 C 4.81 g/m*3 -1.44 C 12.9 km/h
233 06-04-2021 19:20:00 1.8 C 4.77 g/m*3 -0.65 C 8.1 km/h
234 06-04-2021 19:25:00 1.7 C 4.79 g/m*3 -0.77 C 8.1 km/h
235 06-04-2021 19:30:00 1.7 C 4.85 g/m*3 -0.22 C 6.4 km/h
236 06-04-2021 19:35:00 1.7 C 4.85 g/m*3 -0.77 C 8.1 km/h
237 06-04-2021 19:40:00 1.7 C 4.85 g/m*3 1.7 C 4.8 km/h
238 06-04-2021 19:45:00 1.7 C 4.9 g/m*3 -0.22 C 6.4 km/h
239 06-04-2021 19:50:00 1.7 C 4.9 g/m*3 -1.21 C 9.7 km/h
240 06-04-2021 19:55:00 1.7 C 4.9 g/m*3 -0.77 C 8.1 km/h
241 06-04-2021 20:00:00 1.7 C 4.85 g/m*3 1.7 C 3.2 km/h
242 06-04-2021 20:05:00 1.7 C 4.85 g/m*3 1.7 C 0 km/h
243 06-04-2021 20:10:00 1.7 C 4.9 g/m*3 1.7 C 3.2 km/h
244 06-04-2021 20:15:00 1.6 C 4.87 g/m*3 1.6 C 4.8 km/h
245 06-04-2021 20:20:00 1.6 C 4.87 g/m*3 1.6 C 3.2 km/h
246 06-04-2021 20:25:00 1.4 C 4.8 g/m*3 1.4 C 1.6 km/h
247 06-04-2021 20:30:00 1.3 C 4.77 g/m*3 -0.68 C 6.4 km/h
248 06-04-2021 20:35:00 1.3 C 4.72 g/m*3 1.3 C 4.8 km/h
249 06-04-2021 20:40:00 1.2 C 4.68 g/m*3 1.2 C 1.6 km/h
250 06-04-2021 20:45:00 1.2 C 4.68 g/m*3 1.2 C 1.6 km/h
Sensor: Nr:Datum:Temp:Abs-Feuchte:Windchill:Wind:
Aussen-T/F 251 06-04-2021 20:50:00 1.3 C 4.72 g/m*3 -2.72 C 14.5 km/h
252 06-04-2021 20:55:00 1.4 C 4.64 g/m*3 -2.6 C 14.5 km/h
253 06-04-2021 21:00:00 1.5 C 4.57 g/m*3 -1.45 C 9.7 km/h
254 06-04-2021 21:05:00 1.6 C 4.65 g/m*3 1.6 C 3.2 km/h
255 06-04-2021 21:10:00 1.6 C 4.65 g/m*3 1.6 C 4.8 km/h
256 06-04-2021 21:15:00 1.6 C 4.6 g/m*3 1.6 C 4.8 km/h
257 06-04-2021 21:20:00 1.6 C 4.6 g/m*3 -0.33 C 6.4 km/h
258 06-04-2021 21:25:00 1.7 C 4.63 g/m*3 1.7 C 1.6 km/h
259 06-04-2021 21:30:00 1.7 C 4.63 g/m*3 1.7 C 4.8 km/h
260 06-04-2021 21:35:00 1.6 C 4.6 g/m*3 1.6 C 1.6 km/h
261 06-04-2021 21:40:00 1.6 C 4.6 g/m*3 1.6 C 3.2 km/h
262 06-04-2021 21:45:00 1.6 C 4.65 g/m*3 -0.33 C 6.4 km/h
263 06-04-2021 21:50:00 1.6 C 4.6 g/m*3 1.6 C 4.8 km/h
264 06-04-2021 21:55:00 1.6 C 4.6 g/m*3 1.6 C 1.6 km/h
265 06-04-2021 22:00:00 1.6 C 4.6 g/m*3 1.6 C 3.2 km/h
266 06-04-2021 22:05:00 1.6 C 4.6 g/m*3 1.6 C 3.2 km/h
267 06-04-2021 22:10:00 1.6 C 4.6 g/m*3 1.6 C 4.8 km/h
268 06-04-2021 22:15:00 1.6 C 4.6 g/m*3 -0.89 C 8.1 km/h
269 06-04-2021 22:20:00 1.6 C 4.49 g/m*3 1.6 C 4.8 km/h
270 06-04-2021 22:25:00 1.7 C 4.46 g/m*3 -1.93 C 12.9 km/h
271 06-04-2021 22:30:00 1.7 C 4.36 g/m*3 -1.93 C 12.9 km/h
272 06-04-2021 22:35:00 1.8 C 4.44 g/m*3 -1.47 C 11.3 km/h
273 06-04-2021 22:40:00 1.8 C 4.49 g/m*3 1.8 C 4.8 km/h
274 06-04-2021 22:45:00 1.8 C 4.44 g/m*3 -0.1 C 6.4 km/h
275 06-04-2021 22:50:00 1.8 C 4.39 g/m*3 -1.09 C 9.7 km/h
Sensor: Nr:Datum:Temp:Abs-Feuchte:Windchill:Wind:
Aussen-T/F 276 06-04-2021 22:55:00 1.8 C 4.39 g/m*3 1.8 C 4.8 km/h
277 06-04-2021 23:00:00 1.9 C 4.42 g/m*3 0.01 C 6.4 km/h
278 06-04-2021 23:05:00 1.9 C 4.42 g/m*3 1.9 C 4.8 km/h
279 06-04-2021 23:10:00 1.8 C 4.44 g/m*3 -1.09 C 9.7 km/h
280 06-04-2021 23:15:00 1.8 C 4.49 g/m*3 -0.1 C 6.4 km/h
281 06-04-2021 23:20:00 1.7 C 4.46 g/m*3 -0.22 C 6.4 km/h
282 06-04-2021 23:25:00 1.6 C 4.49 g/m*3 -0.89 C 8.1 km/h
283 06-04-2021 23:30:00 1.5 C 4.46 g/m*3 -1.01 C 8.1 km/h
284 06-04-2021 23:35:00 1.4 C 4.43 g/m*3 -0.56 C 6.4 km/h
285 06-04-2021 23:40:00 1.4 C 4.43 g/m*3 -1.57 C 9.7 km/h
286 06-04-2021 23:45:00 1.3 C 4.4 g/m*3 -1.24 C 8.1 km/h
287 06-04-2021 23:50:00 1.3 C 4.45 g/m*3 -1.24 C 8.1 km/h
288 06-04-2021 23:55:00 1.3 C 4.45 g/m*3 1.3 C 4.8 km/h

Legende:
   Min
   Max


Maximal/Minimal-Werte vom 06.04.2021 - 06.04.2021

Sensor Min Max Avg
Temp
(Aussen-T/F)
0.8 °C
06-04-2021  01:15:00
7.5 °C
06-04-2021  15:05:00
3.11 °C
Abs-Feuchte
(Aussen-T/F)
3.67 g/m*3
06-04-2021  15:15:00
4.99 g/m*3
06-04-2021  12:55:00
4.48 g/m*3
Windchill
(Aussen-T/F)
-3.89 C
06-04-2021  01:20:00
4.56 C
06-04-2021  15:00:00
0.27 C

Die Daten stammen von einer Davis Vantage Pro 2 Wetter-Station und werden unter Linux mit der Software wview2wettercgi und aufbereitet. Alle Angaben erfolgen ohne Gewähr für ihre Vollständigkeit oder Richtigkeit.
Kontakt: Rainer Krienke krienke@uni-koblenz.de . Meine Webseiten an der Uni Koblenz oder privat.
Version: $Revision: 0.78 $